Delta, Kentucky
Current Conditions -  °F | °C
As of 12:56 AM on Tuesday 21 Oct 2014 (Local Time) from KEKQ Reporting Station
Scattered Clouds Scattered Clouds  
Wind Chill: 54°   Ceiling: Unl
Heat Index: 54°   Visibility: 10mi
Dew Point: 49°   Wind: 0mph
Humidity: 83%   Direction: NA
Pressure: 30"   Gusts: NA
Location:  36.8129°N, 84.8215°W
Report Text: KEKQ 210456Z AUTO 00000KT 10SM FEW044 SCT070 12/09 A3000 RMK AO2 T01220094 401830027 SLP161
Loading
Personal Weather Stations






























Interactive Weather Map New forecast layout! Learn more

10-Day Weather Forecast

Advertisements
Track Severe Weather on mobile